createdAt,value
2022-12-11T00:00:09.302Z,1.66
2022-12-11T00:02:35.994Z,1.68
2022-12-11T00:05:02.712Z,1.67
2022-12-11T00:07:29.432Z,1.68
2022-12-11T00:09:56.197Z,1.65
2022-12-11T00:12:22.980Z,1.65
2022-12-11T00:14:49.678Z,1.63
2022-12-11T00:17:16.394Z,1.65
2022-12-11T00:19:43.133Z,1.61
2022-12-11T00:22:09.925Z,1.58
2022-12-11T00:24:36.654Z,1.58
2022-12-11T00:27:03.513Z,1.58
2022-12-11T00:29:30.274Z,1.57
2022-12-11T00:31:57.037Z,1.65
2022-12-11T00:34:23.805Z,1.62
2022-12-11T00:36:50.580Z,1.56
2022-12-11T00:39:17.275Z,1.61
2022-12-11T00:41:44.154Z,1.63
2022-12-11T09:42:58.924Z,2.92
2022-12-11T09:45:25.877Z,2.91
2022-12-11T09:47:55.842Z,3.16
2022-12-11T09:50:30.367Z,3.17
2022-12-11T09:53:05.972Z,3.37
2022-12-11T09:55:39.786Z,3.32
2022-12-11T09:58:31.017Z,3.28
2022-12-11T10:01:19.875Z,3.07
2022-12-11T10:04:13.120Z,2.99
2022-12-11T10:06:55.452Z,3.17
2022-12-11T10:09:40.897Z,3.24
2022-12-11T10:12:23.110Z,3.22
2022-12-11T10:15:15.817Z,3.11
2022-12-11T10:17:44.859Z,3.12
2022-12-11T10:20:31.127Z,3.18
2022-12-11T10:22:59.230Z,3.14
2022-12-11T10:25:44.864Z,3.04
2022-12-11T10:28:16.224Z,3.11
2022-12-11T10:31:19.029Z,3.15
2022-12-11T10:33:59.981Z,3.38
2022-12-11T10:36:34.345Z,3.30
2022-12-11T10:39:01.716Z,3.29
2022-12-11T10:41:39.707Z,3.18
2022-12-11T10:44:23.879Z,3.16
2022-12-11T10:47:14.229Z,3.04
2022-12-11T10:49:58.561Z,3.13
2022-12-11T10:52:30.015Z,3.16
2022-12-11T10:55:02.158Z,3.22
2022-12-11T10:57:35.022Z,3.21
2022-12-11T11:00:05.193Z,3.31
2022-12-11T11:02:34.434Z,3.37
2022-12-11T11:05:13.000Z,3.60
2022-12-11T11:07:40.124Z,3.92
2022-12-11T11:10:13.598Z,5.03
2022-12-11T11:12:47.278Z,6.92
2022-12-11T11:15:17.716Z,8.99
2022-12-11T11:17:55.421Z,10.13
2022-12-11T11:20:29.223Z,10.43
2022-12-11T11:23:05.014Z,11.25
2022-12-11T11:25:33.630Z,8.83
2022-12-11T11:28:05.167Z,7.44
2022-12-11T11:30:40.457Z,6.28
2022-12-11T11:33:20.990Z,5.53
2022-12-11T11:35:59.079Z,5.01
2022-12-11T11:38:30.980Z,4.66
2022-12-11T11:41:14.657Z,4.38
2022-12-11T11:44:00.306Z,4.14
2022-12-11T11:46:36.587Z,3.79
2022-12-11T11:49:25.956Z,3.57
2022-12-11T11:52:05.832Z,3.51
2022-12-11T11:54:57.441Z,3.41
2022-12-11T11:57:27.006Z,3.35
2022-12-11T11:59:58.454Z,3.45
2022-12-11T12:02:25.496Z,3.44
2022-12-11T12:04:53.272Z,3.47
2022-12-11T12:07:44.412Z,3.40
2022-12-11T12:10:20.520Z,3.31
2022-12-11T12:13:01.061Z,3.28
2022-12-11T12:15:59.696Z,3.26
2022-12-11T12:18:33.817Z,3.24
2022-12-11T12:21:02.663Z,3.30
2022-12-11T12:23:44.816Z,3.29
2022-12-11T12:26:22.103Z,3.20
2022-12-11T12:28:52.957Z,3.23
2022-12-11T12:31:28.719Z,3.25
2022-12-11T12:34:10.577Z,3.27
2022-12-11T12:37:25.295Z,3.27
2022-12-11T12:39:58.023Z,3.21
2022-12-11T12:42:43.617Z,3.20
2022-12-11T12:45:16.464Z,3.19
2022-12-11T12:47:50.339Z,3.19
2022-12-11T12:50:26.436Z,3.15
2022-12-11T12:52:55.397Z,3.10
2022-12-11T12:55:28.896Z,3.06
2022-12-11T12:58:07.003Z,3.01
2022-12-11T13:00:40.574Z,2.99
2022-12-11T13:03:17.287Z,2.93
2022-12-11T13:05:55.283Z,2.91
2022-12-11T13:08:34.709Z,2.94
2022-12-11T13:11:10.360Z,2.96
2022-12-11T13:13:43.605Z,2.92
2022-12-11T13:16:16.344Z,2.90
2022-12-11T13:18:47.447Z,2.91
2022-12-11T13:21:36.436Z,2.91
2022-12-11T13:24:21.369Z,2.88
2022-12-11T13:26:50.142Z,2.91
2022-12-11T13:29:38.326Z,2.87
2022-12-11T13:32:08.080Z,2.86
2022-12-11T13:34:39.145Z,2.85
2022-12-11T13:37:07.495Z,2.81
2022-12-11T13:39:38.176Z,2.85
2022-12-11T13:42:11.823Z,2.83
2022-12-11T13:44:42.538Z,2.83
2022-12-11T13:47:14.861Z,2.90
2022-12-11T13:49:46.166Z,2.93
2022-12-11T13:52:26.051Z,2.84
2022-12-11T13:54:54.544Z,2.81
2022-12-11T13:57:26.253Z,2.87
2022-12-11T13:59:55.789Z,2.89
2022-12-11T14:05:13.793Z,2.71
2022-12-11T14:07:49.234Z,2.63
2022-12-11T14:10:27.369Z,2.63
2022-12-11T14:12:54.289Z,2.58
2022-12-11T14:15:21.518Z,2.51
2022-12-11T14:17:51.881Z,2.49
2022-12-11T14:20:23.175Z,2.42
2022-12-11T14:22:50.366Z,2.41
2022-12-11T14:25:22.861Z,2.33
2022-12-11T14:27:52.073Z,2.31
2022-12-11T14:30:34.245Z,2.26
2022-12-11T14:33:05.306Z,2.24
2022-12-11T14:35:39.207Z,2.28
2022-12-11T14:38:24.026Z,2.19
2022-12-11T14:40:56.831Z,2.18
2022-12-11T14:43:31.367Z,2.13
2022-12-11T14:46:05.034Z,2.05
2022-12-11T14:48:39.222Z,2.04
2022-12-11T14:51:12.626Z,2.03
2022-12-11T14:53:43.996Z,1.94
2022-12-11T14:56:17.899Z,1.91
2022-12-11T14:58:56.880Z,1.88
2022-12-11T15:01:29.851Z,1.83
2022-12-11T15:04:24.173Z,1.82
2022-12-11T15:06:52.276Z,1.84
2022-12-11T15:09:20.386Z,1.77
2022-12-11T15:11:48.985Z,1.81
2022-12-11T15:14:21.465Z,1.77
2022-12-11T15:16:49.404Z,1.70
2022-12-11T15:19:24.939Z,1.67
2022-12-11T15:21:52.235Z,1.59
2022-12-11T15:24:30.647Z,1.57
2022-12-11T15:26:59.890Z,1.61
2022-12-11T15:29:38.861Z,1.60
2022-12-11T15:32:08.564Z,1.58
2022-12-11T15:34:43.396Z,1.60
2022-12-11T15:37:30.849Z,1.53
2022-12-11T15:40:00.842Z,1.58
2022-12-11T15:42:43.095Z,1.57
2022-12-11T15:45:23.452Z,1.60
2022-12-11T15:47:51.072Z,1.55
2022-12-11T15:50:26.215Z,1.56
2022-12-11T15:52:55.153Z,1.51
2022-12-11T15:55:23.422Z,1.48
2022-12-11T15:57:59.573Z,1.50
2022-12-11T16:00:28.141Z,1.48
2022-12-11T16:02:56.047Z,1.41
2022-12-11T16:05:23.404Z,1.38
2022-12-11T16:07:54.787Z,1.35
2022-12-11T16:10:22.278Z,1.31
2022-12-11T16:12:49.920Z,1.34
2022-12-11T16:15:23.253Z,1.31
2022-12-11T16:17:50.753Z,1.29
2022-12-11T16:20:17.512Z,1.24
2022-12-11T16:22:44.693Z,1.20
2022-12-11T16:25:11.666Z,1.21
2022-12-11T16:27:38.648Z,1.19
2022-12-11T16:30:05.704Z,1.18
2022-12-11T16:32:32.715Z,1.24
2022-12-11T16:35:02.167Z,1.25
2022-12-11T16:37:28.951Z,1.15
2022-12-11T16:39:55.772Z,1.17
2022-12-11T16:42:22.456Z,1.16
2022-12-11T16:44:49.193Z,1.15
2022-12-11T16:47:16.089Z,1.11
2022-12-11T16:49:43.384Z,1.12
2022-12-11T16:52:10.802Z,1.12
2022-12-11T16:54:40.612Z,1.15
2022-12-11T16:57:07.248Z,1.14
2022-12-11T16:59:37.499Z,1.17
2022-12-11T17:02:04.983Z,1.07
2022-12-11T17:04:32.073Z,1.17
2022-12-11T17:06:58.813Z,1.09
2022-12-11T17:09:25.461Z,1.14
2022-12-11T17:11:53.351Z,1.07
2022-12-11T17:14:20.452Z,1.05
2022-12-11T17:16:48.150Z,1.06
2022-12-11T17:19:15.746Z,1.09
2022-12-11T17:21:47.003Z,1.07
2022-12-11T17:24:17.921Z,1.00
2022-12-11T17:26:44.610Z,1.05
2022-12-11T17:29:12.240Z,1.01
2022-12-11T17:31:39.683Z,1.04
2022-12-11T17:34:06.888Z,1.03
2022-12-11T17:36:33.779Z,1.05
2022-12-11T17:39:00.737Z,1.08
2022-12-11T17:41:27.447Z,1.05
2022-12-11T17:43:54.278Z,1.01
2022-12-11T17:46:21.809Z,1.01
2022-12-11T17:48:49.119Z,1.05
2022-12-11T17:51:21.226Z,1.01
2022-12-11T17:53:48.119Z,0.91
2022-12-11T17:56:14.846Z,0.97
2022-12-11T17:58:41.993Z,0.95
2022-12-11T18:01:10.337Z,0.95
2022-12-11T18:03:38.171Z,0.93
2022-12-11T18:06:08.590Z,0.89
2022-12-11T18:08:36.013Z,0.91
2022-12-11T18:11:29.143Z,0.88
2022-12-11T18:13:56.068Z,0.89
2022-12-11T18:16:29.124Z,0.84
2022-12-11T18:18:56.655Z,0.78
2022-12-11T18:21:29.476Z,0.76
2022-12-11T18:23:56.363Z,0.78
2022-12-11T18:26:23.407Z,0.75
2022-12-11T18:28:53.118Z,0.66
2022-12-11T18:31:21.096Z,0.72
2022-12-11T18:33:48.196Z,0.66
2022-12-11T18:36:17.239Z,0.70
2022-12-11T18:38:44.609Z,0.75
2022-12-11T18:41:13.192Z,0.68
2022-12-11T18:43:40.999Z,0.65
2022-12-11T18:46:14.097Z,0.61
2022-12-11T18:48:42.036Z,0.59
2022-12-11T18:51:11.684Z,0.60
2022-12-11T18:53:41.697Z,0.61
2022-12-11T18:56:11.693Z,0.67
2022-12-11T18:58:38.573Z,0.61
2022-12-11T19:01:10.934Z,0.54
2022-12-11T19:03:38.169Z,0.58
2022-12-11T19:06:14.488Z,0.63
2022-12-11T19:08:41.879Z,0.56
2022-12-11T19:11:09.640Z,0.62
2022-12-11T19:13:36.490Z,0.62
2022-12-11T19:16:03.404Z,0.60
2022-12-11T19:18:30.287Z,0.57
2022-12-11T19:21:08.048Z,0.53
2022-12-11T19:23:35.396Z,0.50
2022-12-11T19:26:02.443Z,0.48
2022-12-11T19:28:29.488Z,0.40
2022-12-11T19:30:56.170Z,0.40
2022-12-11T19:33:22.961Z,0.37
2022-12-11T19:35:49.582Z,0.31
2022-12-11T19:38:16.254Z,0.28
2022-12-11T19:40:44.445Z,0.18
2022-12-11T19:43:11.724Z,0.16
2022-12-11T19:45:39.018Z,0.10
2022-12-11T19:48:06.006Z,0.06
2022-12-11T19:50:35.459Z,0.06
2022-12-11T19:53:02.105Z,0.08
2022-12-11T19:55:28.946Z,0.06
2022-12-11T19:57:55.916Z,0.01
2022-12-11T20:00:22.646Z,0.01
2022-12-11T20:02:49.396Z,0.06
2022-12-11T20:05:16.496Z,0.00
2022-12-11T20:07:46.572Z,-0.01
2022-12-11T20:10:13.311Z,-0.01
2022-12-11T20:12:40.142Z,-0.06
2022-12-11T20:15:07.280Z,-0.01
2022-12-11T20:17:33.982Z,0.03
2022-12-11T20:20:00.877Z,0.01
2022-12-11T20:22:27.519Z,-0.02
2022-12-11T20:24:54.244Z,-0.02
2022-12-11T20:27:20.933Z,0.02
2022-12-11T20:29:47.671Z,0.03
2022-12-11T20:32:14.422Z,0.01
2022-12-11T20:34:41.330Z,-0.01
2022-12-11T20:37:08.167Z,-0.05
2022-12-11T20:39:35.721Z,-0.13
2022-12-11T20:42:04.873Z,-0.09
2022-12-11T20:44:32.476Z,0.00
2022-12-11T20:46:59.337Z,-0.06
2022-12-11T20:49:26.433Z,-0.10
2022-12-11T20:51:53.969Z,-0.10
2022-12-11T20:54:20.808Z,-0.12
2022-12-11T20:56:47.750Z,-0.12
2022-12-11T20:59:14.549Z,-0.12
2022-12-11T21:01:41.501Z,-0.18
2022-12-11T21:04:08.422Z,-0.09
2022-12-11T21:06:37.565Z,-0.10
2022-12-11T21:09:25.409Z,-0.14
2022-12-11T21:11:52.583Z,-0.15
2022-12-11T21:14:20.111Z,-0.09
2022-12-11T21:16:47.100Z,-0.09
2022-12-11T21:19:17.039Z,-0.10
2022-12-11T21:21:45.330Z,-0.07
2022-12-11T21:24:26.544Z,-0.09
2022-12-11T21:26:56.179Z,-0.10
2022-12-11T21:29:27.727Z,-0.17
2022-12-11T21:31:54.614Z,-0.18
2022-12-11T21:34:25.356Z,-0.19
2022-12-11T21:36:56.621Z,-0.20
2022-12-11T21:39:24.383Z,-0.17
2022-12-11T21:41:52.622Z,-0.12
2022-12-11T21:47:06.314Z,-0.16
2022-12-11T21:49:32.968Z,-0.28
2022-12-11T21:52:00.128Z,-0.25
2022-12-11T21:54:27.007Z,-0.17
2022-12-11T21:56:54.634Z,-0.17
2022-12-11T21:59:21.404Z,-0.10
2022-12-11T22:01:48.122Z,-0.09
2022-12-11T22:04:16.049Z,0.04
2022-12-11T22:06:43.685Z,-0.03
2022-12-11T22:09:12.523Z,-0.21
2022-12-11T22:11:40.542Z,-0.22
2022-12-11T22:14:07.952Z,-0.19
2022-12-11T22:16:36.551Z,-0.16
2022-12-11T22:19:03.917Z,-0.13
2022-12-11T22:21:30.714Z,-0.14
2022-12-11T22:23:57.441Z,-0.09
2022-12-11T22:26:26.151Z,-0.02
2022-12-11T22:28:53.712Z,-0.06
2022-12-11T22:31:23.156Z,0.01
2022-12-11T22:33:51.600Z,0.03
2022-12-11T22:36:19.028Z,-0.04
2022-12-11T22:38:46.636Z,-0.06
2022-12-11T22:41:22.010Z,-0.09
2022-12-11T22:43:49.583Z,-0.07
2022-12-11T22:46:18.072Z,-0.07
2022-12-11T22:48:44.858Z,-0.06
2022-12-11T22:51:12.083Z,-0.04
2022-12-11T22:53:38.851Z,-0.06
2022-12-11T22:56:10.098Z,-0.03
2022-12-11T22:58:37.097Z,-0.17
2022-12-11T23:01:08.266Z,-0.09
2022-12-11T23:03:35.068Z,0.01
2022-12-11T23:06:05.548Z,-0.05
2022-12-11T23:08:33.155Z,-0.13
2022-12-11T23:11:00.088Z,-0.08
2022-12-11T23:13:26.821Z,-0.14
2022-12-11T23:15:53.550Z,-0.11
2022-12-11T23:18:20.275Z,-0.10
2022-12-11T23:20:48.521Z,-0.07
2022-12-11T23:23:15.215Z,-0.12
2022-12-11T23:25:41.983Z,-0.08
2022-12-11T23:28:08.836Z,-0.05
2022-12-11T23:30:37.546Z,0.00
2022-12-11T23:33:06.602Z,-0.05
2022-12-11T23:35:33.582Z,-0.07
2022-12-11T23:38:00.268Z,-0.12
2022-12-11T23:40:27.108Z,-0.15
2022-12-11T23:42:53.995Z,-0.10
2022-12-11T23:45:21.203Z,-0.08
2022-12-11T23:47:48.452Z,-0.09
2022-12-11T23:50:15.649Z,-0.13
2022-12-11T23:52:42.363Z,-0.13
2022-12-11T23:55:10.603Z,-0.13
2022-12-11T23:57:37.821Z,-0.15
